الصفحة الرئيسية
METAR-TAF:

METAR-TAF

مطار :

Derby, أستراليا

دائرة عرض: 17-34-53S, خط طول: 123-49-42E, ارتفاع: 91 متر

مراقبة الطقس الحالي

تاريخ ووقت الإصدار 42 دقيقة قبل الساعة 22:00UTC
ريح 12 عقدة من الجنوب الشرقي
درجة الحرارة 21°درجة مئوية
الرطوبة 28%
ضغط 1015 hPa
الرؤية 10 كم أو أكثر

METAR: YCIN 022200Z AUTO 13012KT 9999 // NCD 21/02 Q1015

زمن: 06:42 (22:42 UTC)

توقعات

تاريخ ووقت الإصدار 4ساعات و 31 دقيقة قبل الساعة 18:11UTC
التوقعات صالحة من02 الساعة 20 UTC إلى 03 الساعة 08 UTC
ريح 13 عقدة من الجنوب الشرقي
الرؤية 10 كم أو أكثر
الغيوم لا تقل 1500 م ولا وجود لمزنة ركامية السحاب الأسود

TAF: YCIN 021811Z 0220/0308 13013KT CAVOK

أرصاد الطقس والتوقعات من أكثر من 4000 مطار (تقارير الطقس للمطار METAR والتنبؤ بالطقس بالمطارTAF).

المحطات المتاحة هي النقط الصفراء والحمراء على الخريطة.

حرك المؤشر فوق النقطة لمعرفة اسم المحطة.

ثم انقر لمعرفة أرصاد وتوقعات الطقس.

لتغيير الخارطة: اضغط على الأزرار الخضراء مع رمز الصليب الأسود للتكبير. على الزر الأخضر مع شرطة للتصغير، أو على الأسهم الخضراء للخرائط المجاورة.


METAR-TAF: